• Join FlightAware (Why Join?)
  • Login
  • US Flag 
07:36AM EST


 

Airport Tracker/Info


-or-


 

Live Flight TrackerFlight Track Log ✈ EJA829P ✈ 15-Nov-2013 ✈ 07FA - KMTH

Flight Track Log - Related Links

Times and Time Zones

All times are in EST time to prevent confusion due to time zone crossing. See the EJA829P flight status page for this flight to view local times or setup timezone preferences in your user account.

Time Position Orientation Groundspeed Altitude Reporting Facility
EST Latitude Longitude Course Direction KTS MPH feet Rate Location/Type
03:32PM 25.3411 -80.2594 307° West 252 290 1,100  Level Miami Center
03:34PM 25.3814 -80.3178 307° West 211 243 4,000 1,800 Climbing Miami Center
03:35PM 25.3614 -80.3747 249° West 219 252 5,900 960 Climbing Miami Center
03:36PM 25.3061 -80.4053 207° Southwest 189 217 6,000  Climbing Miami Center
03:37PM 25.2656 -80.4503 225° Southwest 202 232 6,000  Level Miami Center
03:38PM 25.2247 -80.4972 226° Southwest 207 238 6,000  Level Miami Center
03:39PM 25.1839 -80.5419 225° Southwest 212 244 6,000  Level Miami Center
03:40PM 25.1431 -80.5864 225° Southwest 212 244 6,000  Level Miami Center
03:41PM 25.1061 -80.6383 232° Southwest 212 244 6,000  Level Miami Center
03:42PM 25.0694 -80.6875 231° Southwest 212 244 6,000  Level Miami Center
03:43PM 25.0261 -80.7411 228° Southwest 222 255 6,000  Level Miami Center
03:44PM 24.9850 -80.8017 233° Southwest 241 277 6,000 -720 Level Miami Center
03:45PM 24.9397 -80.8575 228° Southwest 246 283 4,600 -1,020 Descending Miami Center
03:46PM 24.9072 -80.9000 230° Southwest 246 283 4,000 -300 Descending Miami Center
03:47PM 24.8636 -80.9672 234° Southwest 241 277 4,000  Level Miami Center
03:48PM 24.8178 -81.0297 231° Southwest 252 290 4,000  Level Miami Center
03:49PM 24.7703 -81.0900 229° Southwest 257 296 4,000 -240 Level Miami Center
03:50PM 24.7267 -81.1503 231° Southwest 262 302 3,600 -480 Descending Miami Center
03:51PM 24.6853 -81.2058 231° Southwest 257 296 3,100 -300 Descending Miami Center
03:52PM 24.6461 -81.2617 232° Southwest 245 282 3,100  Level Miami Center
03:53PM 24.5950 -81.2986 213° Southwest 232 267 3,100  Level Miami Center
03:54PM 24.5808 -81.3506 253° West 213 245 3,100  Level Miami Center
03:55PM 24.6211 -81.3269 28° Northeast 58 67 3,100  Level Miami Center
03:56PM 24.6350 -81.2864 69° East 68 78 3,100 -240 Level Miami Center
03:57PM 24.6508 -81.2458 67° East 113 130 2,700 -600 Descending Miami Center
03:58PM 24.6667 -81.2053 67° East 136 157 1,900 -420 Descending Miami Center
03:59PM 24.6825 -81.1647 67° East 141 162 1,900 -300 Level Miami Center
04:00PM 24.6961 -81.1286 67° East 136 157 1,400 -600 Descending Miami Center
04:01PM 24.7050 -81.1014 70° East 114 131 800 -600 Descending Miami Center